createdAt,value
2022-08-17T00:01:14.194Z,27.13
2022-08-17T00:06:28.137Z,23.85
2022-08-17T00:11:32.874Z,22.00
2022-08-17T00:16:51.916Z,22.95
2022-08-17T00:22:33.039Z,22.38
2022-08-17T00:27:24.538Z,22.92
2022-08-17T00:33:12.019Z,23.73
2022-08-17T00:37:48.813Z,25.00
2022-08-17T00:42:50.892Z,23.67
2022-08-17T00:47:52.824Z,25.48
2022-08-17T00:52:57.469Z,25.92
2022-08-17T00:58:03.068Z,24.13
2022-08-17T01:03:11.899Z,22.13
2022-08-17T01:08:16.473Z,22.83
2022-08-17T01:13:18.343Z,23.42
2022-08-17T01:18:20.306Z,23.50
2022-08-17T01:23:24.390Z,22.98
2022-08-17T01:28:52.299Z,25.55
2022-08-17T01:33:53.260Z,22.20
2022-08-17T01:38:55.011Z,23.83
2022-08-17T01:44:01.494Z,24.25
2022-08-17T01:49:07.405Z,22.33
2022-08-17T01:54:13.459Z,22.63
2022-08-17T01:59:16.754Z,26.33
2022-08-17T02:04:18.668Z,22.92
2022-08-17T02:09:27.167Z,22.92
2022-08-17T02:14:31.792Z,20.05
2022-08-17T02:19:33.582Z,20.85
2022-08-17T02:24:59.329Z,23.33
2022-08-17T02:30:00.189Z,19.92
2022-08-17T02:35:02.150Z,22.63
2022-08-17T02:40:05.137Z,21.05
2022-08-17T02:45:13.831Z,21.90
2022-08-17T02:50:17.855Z,22.73
2022-08-17T02:55:23.009Z,22.23
2022-08-17T03:00:33.952Z,19.70
2022-08-17T03:05:38.134Z,20.45
2022-08-17T03:10:39.969Z,20.70
2022-08-17T03:15:45.174Z,21.02
2022-08-17T03:20:47.211Z,21.55
2022-08-17T03:25:48.986Z,21.40
2022-08-17T03:30:55.313Z,22.25
2022-08-17T03:35:57.579Z,20.27
2022-08-17T03:40:59.964Z,21.77
2022-08-17T03:46:28.777Z,21.80
2022-08-17T03:51:55.194Z,21.45
2022-08-17T03:57:16.288Z,22.30
2022-08-17T04:02:23.257Z,22.17
2022-08-17T04:07:28.508Z,20.55
2022-08-17T04:12:49.060Z,22.08
2022-08-17T04:17:52.371Z,23.10
2022-08-17T04:23:06.445Z,23.35
2022-08-17T04:28:09.429Z,21.25
2022-08-17T04:33:23.984Z,20.40
2022-08-17T04:38:32.314Z,20.70
2022-08-17T04:43:35.368Z,20.92
2022-08-17T04:48:40.469Z,21.35
2022-08-17T04:53:45.625Z,23.55
2022-08-17T04:58:59.347Z,20.98
2022-08-17T05:04:33.485Z,21.52
2022-08-17T05:09:26.897Z,21.92
2022-08-17T05:14:32.705Z,22.63
2022-08-17T05:19:35.611Z,23.60
2022-08-17T05:24:43.547Z,23.92
2022-08-17T05:29:55.409Z,22.25
2022-08-17T05:34:59.951Z,24.95
2022-08-17T05:40:01.922Z,21.48
2022-08-17T05:45:05.032Z,22.00
2022-08-17T05:50:09.787Z,22.02
2022-08-17T05:55:28.670Z,21.40
2022-08-17T06:00:59.547Z,21.45
2022-08-17T06:06:09.133Z,21.00
2022-08-17T06:11:32.268Z,23.55
2022-08-17T06:16:44.698Z,20.70
2022-08-17T06:26:52.245Z,22.98
2022-08-17T06:31:54.105Z,19.67
2022-08-17T06:37:15.282Z,20.50
2022-08-17T06:42:59.902Z,18.23
2022-08-17T06:48:12.816Z,16.80
2022-08-17T06:53:26.123Z,17.98
2022-08-17T06:58:31.295Z,18.83
2022-08-17T07:03:49.781Z,15.30
2022-08-17T07:08:59.079Z,20.13
2022-08-17T07:14:21.462Z,14.77
2022-08-17T07:19:31.714Z,14.70
2022-08-17T07:24:47.244Z,14.98
2022-08-17T07:29:54.331Z,15.85
2022-08-17T07:35:08.485Z,13.75
2022-08-17T07:40:26.961Z,11.90
2022-08-17T07:45:48.894Z,11.50
2022-08-17T07:50:53.241Z,12.48
2022-08-17T07:55:55.066Z,9.40
2022-08-17T08:01:10.609Z,9.73
2022-08-17T08:06:26.422Z,9.43
2022-08-17T08:11:34.581Z,11.27
2022-08-17T08:16:36.731Z,8.40
2022-08-17T08:22:02.265Z,7.95
2022-08-17T08:27:27.061Z,8.77
2022-08-17T08:32:37.904Z,7.53
2022-08-17T08:37:43.350Z,9.40
2022-08-17T08:42:56.438Z,9.75
2022-08-17T08:48:05.130Z,9.57
2022-08-17T08:53:23.494Z,9.60
2022-08-17T08:58:42.080Z,8.68
2022-08-17T09:04:25.194Z,8.55
2022-08-17T09:09:45.849Z,8.93
2022-08-17T09:15:15.793Z,7.60
2022-08-17T09:20:28.002Z,9.38
2022-08-17T09:25:34.908Z,7.80
2022-08-17T09:31:08.455Z,9.20
2022-08-17T09:36:33.242Z,6.28
2022-08-17T09:41:51.757Z,8.30
2022-08-17T09:47:12.471Z,12.43
2022-08-17T09:52:27.000Z,7.10
2022-08-17T09:58:09.593Z,7.75
2022-08-17T10:03:24.136Z,7.80
2022-08-17T10:08:53.890Z,7.53
2022-08-17T10:14:36.768Z,7.18
2022-08-17T10:19:43.940Z,6.82
2022-08-17T10:25:22.164Z,5.95
2022-08-17T10:30:30.502Z,7.00
2022-08-17T10:35:50.163Z,6.32
2022-08-17T10:41:19.353Z,8.40
2022-08-17T10:46:39.673Z,7.10
2022-08-17T10:51:41.970Z,8.00
2022-08-17T10:56:46.992Z,6.38
2022-08-17T11:02:00.873Z,6.90
2022-08-17T11:07:29.209Z,6.40
2022-08-17T11:13:02.252Z,6.40
2022-08-17T11:18:29.818Z,5.80
2022-08-17T11:23:59.315Z,5.85
2022-08-17T11:34:23.098Z,9.90
2022-08-17T11:39:43.409Z,7.45
2022-08-17T11:44:59.324Z,5.60
2022-08-17T11:50:45.540Z,6.68
2022-08-17T11:55:53.472Z,6.50
2022-08-17T12:00:58.373Z,5.87
2022-08-17T12:06:06.064Z,7.07
2022-08-17T12:11:15.945Z,7.45
2022-08-17T12:16:20.879Z,7.63
2022-08-17T12:21:54.493Z,6.15
2022-08-17T12:26:59.557Z,8.52
2022-08-17T12:32:02.220Z,6.97
2022-08-17T12:37:14.566Z,5.53
2022-08-17T12:42:26.052Z,6.88
2022-08-17T12:47:29.968Z,6.72
2022-08-17T12:52:37.571Z,6.78
2022-08-17T12:57:43.209Z,6.55
2022-08-17T13:02:47.197Z,5.22
2022-08-17T13:07:50.574Z,7.13
2022-08-17T13:12:53.544Z,6.05
2022-08-17T13:17:58.551Z,5.97
2022-08-17T13:23:03.945Z,5.88
2022-08-17T13:28:33.606Z,5.70
2022-08-17T13:33:43.337Z,9.90
2022-08-17T13:38:49.661Z,7.30
2022-08-17T13:43:51.451Z,6.25
2022-08-17T13:49:06.038Z,6.18
2022-08-17T13:54:26.009Z,6.47
2022-08-17T13:59:53.062Z,6.18
2022-08-17T14:04:57.890Z,6.82
2022-08-17T14:10:10.862Z,8.60
2022-08-17T14:15:15.892Z,7.60
2022-08-17T14:20:20.478Z,5.55
2022-08-17T14:25:25.650Z,6.05
2022-08-17T14:30:28.953Z,5.32
2022-08-17T14:35:32.267Z,7.50
2022-08-17T14:40:35.201Z,8.10
2022-08-17T14:45:37.121Z,6.13
2022-08-17T14:50:41.530Z,5.30
2022-08-17T14:55:45.747Z,6.70
2022-08-17T15:00:50.977Z,6.07
2022-08-17T15:05:53.842Z,8.32
2022-08-17T15:10:55.774Z,7.00
2022-08-17T15:15:59.944Z,7.13
2022-08-17T15:21:04.461Z,5.40
2022-08-17T15:26:07.561Z,5.38
2022-08-17T15:31:09.416Z,6.93
2022-08-17T15:36:11.283Z,5.30
2022-08-17T15:41:17.884Z,5.70
2022-08-17T15:46:22.802Z,7.43
2022-08-17T15:51:33.026Z,5.32
2022-08-17T15:56:35.335Z,7.00
2022-08-17T16:03:06.193Z,6.85
2022-08-17T16:07:00.147Z,8.35
2022-08-17T16:12:10.877Z,7.28
2022-08-17T16:17:38.609Z,6.03
2022-08-17T16:22:45.234Z,7.07
2022-08-17T16:27:49.307Z,6.90
2022-08-17T16:32:53.062Z,10.05
2022-08-17T16:37:57.117Z,23.83
2022-08-17T16:42:59.178Z,14.45
2022-08-17T16:48:01.608Z,17.52
2022-08-17T16:53:10.494Z,10.98
2022-08-17T17:03:18.918Z,15.07
2022-08-17T17:08:30.590Z,13.23
2022-08-17T17:13:43.737Z,11.02
2022-08-17T17:19:12.348Z,10.05
2022-08-17T17:24:37.468Z,11.30
2022-08-17T17:30:05.092Z,8.90
2022-08-17T17:35:23.023Z,10.10
2022-08-17T17:40:42.761Z,7.70
2022-08-17T17:45:50.673Z,8.50
2022-08-17T17:51:02.894Z,8.90
2022-08-17T17:56:07.763Z,9.75
2022-08-17T18:02:00.381Z,8.27
2022-08-17T18:07:24.878Z,10.15
2022-08-17T18:12:45.729Z,9.95
2022-08-17T18:18:06.511Z,11.65
2022-08-17T18:23:08.576Z,10.23
2022-08-17T18:28:30.305Z,11.35
2022-08-17T18:33:32.882Z,10.40
2022-08-17T18:38:42.945Z,10.93
2022-08-17T18:43:57.650Z,14.95
2022-08-17T18:49:27.598Z,32.53
2022-08-17T18:59:43.391Z,16.17
2022-08-17T19:05:02.467Z,23.33
2022-08-17T19:10:10.218Z,22.13
2022-08-17T19:15:21.263Z,14.88
2022-08-17T19:20:49.550Z,10.88
2022-08-17T19:25:58.368Z,33.33
2022-08-17T19:31:09.950Z,13.43
2022-08-17T19:36:26.339Z,11.57
2022-08-17T19:41:46.639Z,10.95
2022-08-17T19:47:53.201Z,15.95
2022-08-17T19:53:30.107Z,16.50
2022-08-17T19:59:12.478Z,29.67
2022-08-17T20:04:42.230Z,11.90
2022-08-17T20:09:53.653Z,10.55
2022-08-17T20:15:13.939Z,10.60
2022-08-17T20:20:43.466Z,11.35
2022-08-17T20:26:44.089Z,14.43
2022-08-17T20:31:59.394Z,10.30
2022-08-17T20:37:13.343Z,16.63
2022-08-17T20:42:23.785Z,9.55
2022-08-17T20:48:00.814Z,10.85
2022-08-17T20:53:11.386Z,10.05
2022-08-17T20:58:31.105Z,15.90
2022-08-17T21:03:51.055Z,13.97
2022-08-17T21:09:30.498Z,12.95
2022-08-17T21:14:59.809Z,12.55
2022-08-17T21:20:17.121Z,11.87
2022-08-17T21:25:40.337Z,12.98
2022-08-17T21:30:48.041Z,10.85
2022-08-17T21:35:50.509Z,11.32
2022-08-17T21:40:53.608Z,10.50
2022-08-17T21:46:00.372Z,10.63
2022-08-17T21:51:19.506Z,10.45
2022-08-17T21:56:45.646Z,11.07
2022-08-17T22:01:55.983Z,11.80
2022-08-17T22:07:00.910Z,15.48
2022-08-17T22:12:13.844Z,10.70
2022-08-17T22:17:18.991Z,12.88
2022-08-17T22:22:34.169Z,12.20
2022-08-17T22:27:57.196Z,12.40
2022-08-17T22:33:09.150Z,11.40
2022-08-17T22:38:19.893Z,12.73
2022-08-17T22:43:28.560Z,13.23
2022-08-17T22:48:31.378Z,13.73
2022-08-17T22:53:53.751Z,13.15
2022-08-17T22:59:19.108Z,12.30
2022-08-17T23:04:39.312Z,14.23
2022-08-17T23:09:42.580Z,12.32
2022-08-17T23:14:49.288Z,14.30
2022-08-17T23:19:51.079Z,13.30
2022-08-17T23:24:57.071Z,13.55
2022-08-17T23:29:59.163Z,12.18
2022-08-17T23:35:04.202Z,12.15
2022-08-17T23:40:09.363Z,12.00
2022-08-17T23:45:13.119Z,12.02
2022-08-17T23:50:16.051Z,13.38
2022-08-17T23:55:18.987Z,13.65
